Terminal Aerodrome Forecast
Issued by NWS

Home | Current Version | Previous Version | Text Only | Print | Product List | Glossary On
Versions: 1 2 3 4 5 6 7 8 9 10 11 12 13 14 15
000
FTPA31 PHFO 172344
TAFHMK
TAF
PHMK 172344Z 1800/1824 05014G22KT P6SM SCT030
     FM180500 04009KT P6SM FEW025
     FM182000 05012G20KT P6SM SCT030=

USA.gov is the U.S. government's official web portal to all federal, state and local government web resources and services.